地図

経路データ

SID SEASON NUMBER BASIN SUBBASIN NAME ISO_TIME NATURE LAT LON WMO_WIND WMO_PRES WMO_AGENCY TRACK_TYPE DIST2LAND LANDFALL IFLAG USA_AGENCY USA_ATCF_ID USA_LAT USA_LON USA_RECORD USA_STATUS USA_WIND USA_PRES USA_SSHS USA_R34_NE USA_R34_SE USA_R34_SW USA_R34_NW USA_R50_NE USA_R50_SE USA_R50_SW USA_R50_NW USA_R64_NE USA_R64_SE USA_R64_SW USA_R64_NW USA_POCI USA_ROCI USA_RMW USA_EYE TOKYO_LAT TOKYO_LON TOKYO_GRADE TOKYO_WIND TOKYO_PRES TOKYO_R50_DIR TOKYO_R50_LONG TOKYO_R50_SHORT TOKYO_R30_DIR TOKYO_R30_LONG TOKYO_R30_SHORT TOKYO_LAND CMA_LAT CMA_LON CMA_CAT CMA_WIND CMA_PRES HKO_LAT HKO_LON HKO_CAT HKO_WIND HKO_PRES NEWDELHI_LAT NEWDELHI_LON NEWDELHI_GRADE NEWDELHI_WIND NEWDELHI_PRES NEWDELHI_CI NEWDELHI_DP NEWDELHI_POCI REUNION_LAT REUNION_LON REUNION_TYPE REUNION_WIND REUNION_PRES REUNION_TNUM REUNION_CI REUNION_RMW REUNION_R34_NE REUNION_R34_SE REUNION_R34_SW REUNION_R34_NW REUNION_R50_NE REUNION_R50_SE REUNION_R50_SW REUNION_R50_NW REUNION_R64_NE REUNION_R64_SE REUNION_R64_SW REUNION_R64_NW BOM_LAT BOM_LON BOM_TYPE BOM_WIND BOM_PRES BOM_TNUM BOM_CI BOM_RMW BOM_R34_NE BOM_R34_SE BOM_R34_SW BOM_R34_NW BOM_R50_NE BOM_R50_SE BOM_R50_SW BOM_R50_NW BOM_R64_NE BOM_R64_SE BOM_R64_SW BOM_R64_NW BOM_ROCI BOM_POCI BOM_EYE BOM_POS_METHOD BOM_PRES_METHOD NADI_LAT NADI_LON NADI_CAT NADI_WIND NADI_PRES WELLINGTON_LAT WELLINGTON_LON WELLINGTON_WIND WELLINGTON_PRES DS824_LAT DS824_LON DS824_STAGE DS824_WIND DS824_PRES TD9636_LAT TD9636_LON TD9636_STAGE TD9636_WIND TD9636_PRES TD9635_LAT TD9635_LON TD9635_WIND TD9635_PRES TD9635_ROCI NEUMANN_LAT NEUMANN_LON NEUMANN_CLASS NEUMANN_WIND NEUMANN_PRES MLC_LAT MLC_LON MLC_CLASS MLC_WIND MLC_PRES USA_GUST BOM_GUST BOM_GUST_PER REUNION_GUST REUNION_GUST_PER USA_SEAHGT USA_SEARAD_NE USA_SEARAD_SE USA_SEARAD_SW USA_SEARAD_NW STORM_SPEED STORM_DIR
1988310S08100 1989 104 SI WA BARISAONA 1988-11-05 06:00:00 TS -8.20000 99.6750 25 bom main 545 545 O_____O___O_O_ jtwc_sh SH021989 -8.40000 99.5000 25 -1 -7.60000 100.200 20 25 -8.40000 99.5000 1 25 -8.40000 99.5000 TC 25 2 103
1988310S08100 1989 104 SI WA BARISAONA 1988-11-05 09:00:00 TS -8.21801 99.7530 main 537 537 P_____P___P_P_ SH021989 -8.36251 99.6150 25 -1 -7.77000 100.163 20 25 -8.37700 99.6196 1 25 -8.36251 99.6150 TC 25 1 120
1988310S08100 1989 104 SI WA BARISAONA 1988-11-05 12:00:00 TS -8.27500 99.8000 25 bom main 546 546 O_____O___O_O_ jtwc_sh SH021989 -8.40000 99.7000 25 -1 -7.90000 100.100 20 25 -8.40000 99.7000 1 25 -8.40000 99.7000 TC 25 2 167
1988310S08100 1989 104 SI WA BARISAONA 1988-11-05 15:00:00 TS -8.39043 99.7931 main 555 555 P_____P___P_P_ SH021989 -8.54999 99.7300 25 -1 -7.96501 100.000 20 25 -8.49672 99.7123 1 25 -8.54999 99.7300 TC 25 2 194
1988310S08100 1989 104 SI WA BARISAONA 1988-11-05 18:00:00 TS -8.50539 99.7421 25 bom main 571 571 O_____O___P_O_ jtwc_sh SH021989 -8.70000 99.7000 25 -1 -8.00000 99.9000 20 25 -8.62158 99.6683 1 25 -8.70000 99.7000 TC 25 2 214
1988310S08100 1989 104 SI WA BARISAONA 1988-11-05 21:00:00 TS -8.57954 99.6676 main 579 579 P_____P___P_P_ SH021989 -8.76750 99.6150 25 -1 -8.07249 99.8500 20 25 -8.71065 99.5902 1 25 -8.76750 99.6150 TC 25 2 255
1988310S08100 1989 104 SI WA BARISAONA 1988-11-06 00:00:00 TS -8.55000 99.5750 25 bom main 577 576 O_____O___O_O_ jtwc_sh SH021989 -8.70000 99.5000 25 -1 -8.10000 99.8000 20 25 -8.70000 99.5000 1 25 -8.70000 99.5000 TC 25 3 322
1988310S08100 1989 104 SI WA BARISAONA 1988-11-06 03:00:00 TS -8.34391 99.4791 main 568 559 P_____P___P_P_ SH021989 -8.44500 99.3925 25 -1 -8.02250 99.7075 20 27 -8.46315 99.4239 1 25 -8.44500 99.3925 TC 25 5 339
1988310S08100 1989 104 SI WA BARISAONA 1988-11-06 06:00:00 TS -8.05750 99.3856 30 bom main 559 539 O_____O___P_O_ jtwc_sh SH021989 -8.10000 99.3000 25 -1 -7.90000 99.6000 20 30 2.50000 2.50000 -8.13002 99.3423 1 25 -8.10000 99.3000 TC 25 6 343
1988310S08100 1989 104 SI WA BARISAONA 1988-11-06 09:00:00 TS -7.78234 99.3068 main 539 522 P_____P___P_P_ SH021989 -7.77000 99.2275 25 -1 -7.80749 99.5075 20 30 -7.78188 99.2645 1 25 -7.77000 99.2275 TC 25 5 345
1988310S08100 1989 104 SI WA BARISAONA 1988-11-06 12:00:00 TS -7.55000 99.2500 30 bom main 513 512 O_____O___O_O_ jtwc_sh SH021989 -7.50000 99.2000 25 -1 -7.70000 99.4000 20 30 2.50000 2.50000 -7.50000 99.2000 1 25 -7.50000 99.2000 TC 25 4 351
1988310S08100 1989 104 SI WA BARISAONA 1988-11-06 15:00:00 TS -7.41122 99.2494 main 512 504 P_____P___P_P_ SH021989 -7.34750 99.2575 25 -1 -7.54999 99.2650 20 30 -7.39989 99.2176 1 25 -7.34750 99.2575 TC 25 2 0
1988310S08100 1989 104 SI WA BARISAONA 1988-11-06 18:00:00 TS -7.34370 99.2350 30 bom main 504 504 O_____O___P_O_ jtwc_sh SH021989 -7.30000 99.3000 25 -1 -7.40000 99.1000 20 30 2.50000 2.50000 -7.37479 99.2401 1 25 -7.30000 99.3000 TC 25 1 312
1988310S08100 1989 104 SI WA BARISAONA 1988-11-06 21:00:00 TS -7.33666 99.1695 main 504 504 P_____P___P_P_ SH021989 -7.34242 99.2750 25 -1 -7.27450 98.9105 20 30 -7.38730 99.2176 1 25 -7.34242 99.2750 TC 25 2 268
1988310S08100 1989 104 SI WA BARISAONA 1988-11-07 00:00:00 TS -7.35000 99.0000 30 bom main 519 519 O_____O___O_O_ jtwc_sh SH021989 -7.40000 99.1000 25 -1 -7.20000 98.7000 20 30 2.50000 2.50000 -7.40000 99.1000 1 25 -7.40000 99.1000 TC 25 5 272
1988310S08100 1989 104 SI WA BARISAONA 1988-11-07 03:00:00 TS -7.32274 98.6595 main 543 543 P_____P___P_P_ SH021989 -7.36513 98.6800 25 -1 -7.20725 98.4808 20 30 -7.35343 98.7971 1 25 -7.36513 98.6800 TC 25 7 275
1988310S08100 1989 104 SI WA BARISAONA 1988-11-07 06:00:00 TS -7.28511 98.2656 30 bom main 577 577 O_____O___P_O_ jtwc_sh SH021989 -7.30000 98.2000 25 -1 -7.24000 98.2600 20 30 2.50000 2.50000 -7.30045 98.4024 1 25 -7.30000 98.2000 TC 25 7 276
1988310S08100 1989 104 SI WA BARISAONA 1988-11-07 09:00:00 TS -7.24509 97.9376 main 605 605 P_____P___P_P_ SH021989 -7.24996 97.8550 25 -1 -7.23323 98.0588 20 35 -7.24719 97.9815 1 25 -7.24996 97.8550 TC 25 6 278
1988310S08100 1989 104 SI WA BARISAONA 1988-11-07 12:00:00 TS -7.20250 97.6625 40 bom main 622 622 O_____O___O_O_ jtwc_sh SH021989 -7.20000 97.6000 25 -1 -7.21000 97.8500 30 40 3.00000 3.00000 -7.20000 97.6000 1 25 -7.20000 97.6000 TC 25 5 280
1988310S08100 1989 104 SI WA BARISAONA 1988-11-07 15:00:00 TS -7.15827 97.4612 main 630 623 P_____P___P_P_ SH021989 -7.14245 97.4425 27 -1 -7.17650 97.6058 30 40 -7.17169 97.3538 1 27 -7.14245 97.4425 TC 27 4 282
1988310S08100 1989 104 SI WA BARISAONA 1988-11-07 18:00:00 TS -7.12244 97.2788 40 bom main 626 626 O_____O___P_O_ jtwc_sh SH021989 -7.10000 97.3000 30 -1 -7.14000 97.3600 30 40 3.00000 3.00000 -7.14977 97.1551 1 30 -7.10000 97.3000 TC 30 4 276
1988310S08100 1989 104 SI WA BARISAONA 1988-11-07 21:00:00 TS -7.11506 97.0640 main 633 633 P_____P___P_P_ SH021989 -7.10751 97.0650 32 -1 -7.11723 97.1470 30 40 -7.12797 96.9788 1 32 -7.10751 97.0650 TC 32 4 273
1988310S08100 1989 104 SI WA BARISAONA 1988-11-08 00:00:00 TS -7.09750 96.8350 40 bom main 646 640 O_____O___O_O_ jtwc_sh SH021989 -7.10000 96.8000 35 0 -7.09000 96.9400 30 40 3.00000 3.00000 -7.10000 96.8000 2 35 -7.10000 96.8000 TC 35 5 281
1988310S08100 1989 104 SI WA BARISAONA 1988-11-08 03:00:00 TS -7.02301 96.5941 main 645 645 P_____P___P_P_ SH021989 -7.00000 96.5425 40 0 -7.04301 96.7053 30 40 -7.04903 96.5862 2 38 -7.00000 96.5425 TC 40 5 288
1988310S08100 1989 104 SI WA BARISAONA 1988-11-08 06:00:00 TS -6.94561 96.3637 40 bom main 645 645 O_____O___P_O_ jtwc_sh SH021989 -6.90000 96.3000 45 0 -6.99000 96.4900 30 40 3.00000 3.00000 -6.99246 96.3650 2 42 -6.90000 96.3000 TC 45 4 285
1988310S08100 1989 104 SI WA BARISAONA 1988-11-08 09:00:00 TS -6.91232 96.1728 main 655 655 P_____P___P_P_ SH021989 -6.88497 96.1000 47 0 -6.93971 96.3548 30 42 -6.93965 96.1362 2 46 -6.88497 96.1000 TC 47 4 277
1988310S08100 1989 104 SI WA BARISAONA 1988-11-08 12:00:00 TS -6.90000 95.9750 45 bom main 665 665 O_____O___O_O_ jtwc_sh SH021989 -6.90000 95.9000 50 0 -6.90000 96.2000 30 45 3.00000 3.00000 -6.90000 95.9000 2 50 -6.90000 95.9000 TC 50 4 272
1988310S08100 1989 104 SI WA BARISAONA 1988-11-08 15:00:00 TS -6.89413 95.7236 main 682 682 P_____P___P_P_ SH021989 -6.90000 95.6575 52 0 -6.88277 95.9303 30 47 -6.89376 95.6491 2 51 -6.90000 95.6575 TC 52 5 271
1988310S08100 1989 104 SI WA BARISAONA 1988-11-08 18:00:00 TS -6.89250 95.4532 50 bom main 694 694 O_____O___P_O_ jtwc_sh SH021989 -6.90000 95.4000 55 0 -6.87000 95.6200 30 50 3.50000 3.50000 -6.90001 95.3926 2 52 -6.90000 95.4000 TC 55 5 271
1988310S08100 1989 104 SI WA BARISAONA 1988-11-08 21:00:00 TS -6.88938 95.1886 main 712 712 P_____P___P_P_ SH021989 -6.90000 95.1425 55 0 -6.85125 95.3295 30 50 -6.90626 95.1398 2 53 -6.90000 95.1425 TC 55 5 272
1988310S08100 1989 104 SI WA BARISAONA 1988-11-09 00:00:00 TS -6.87750 94.9400 50 bom main 732 732 O_____O___O_O_ jtwc_sh SH021989 -6.90000 94.9000 55 0 -6.81000 95.0600 30 50 3.50000 3.50000 -6.90000 94.9000 2 55 -6.90000 94.9000 TC 55 5 274
1988310S08100 1989 104 SI WA BARISAONA 1988-11-09 03:00:00 TS -6.85690 94.7262 main 746 737 P_____P___P_P_ SH021989 -6.91498 94.6925 55 0 -6.72524 94.8220 30 50 -6.87240 94.6978 2 55 -6.91498 94.6925 TC 55 4 279
1988310S08100 1989 104 SI WA BARISAONA 1988-11-09 06:00:00 TS -6.81497 94.5319 50 bom main 751 750 O_____O___P_O_ jtwc_sh SH021989 -6.90000 94.5000 55 0 -6.63000 94.6200 30 50 3.50000 3.50000 -6.82986 94.5075 2 55 -6.90000 94.5000 TC 55 4 287
1988310S08100 1989 104 SI WA BARISAONA 1988-11-09 09:00:00 TS -6.74220 94.3520 main 750 750 P_____P___P_P_ SH021989 -6.81498 94.3075 55 0 -6.56645 94.4795 30 50 -6.77240 94.3135 2 55 -6.81498 94.3075 TC 55 4 294
1988310S08100 1989 104 SI WA BARISAONA 1988-11-09 12:00:00 TS -6.65000 94.1500 50 bom main 757 757 O_____O___O_O_ jtwc_sh SH021989 -6.70000 94.1000 55 0 -6.50000 94.3000 30 50 3.50000 3.50000 -6.70000 94.1000 2 55 -6.70000 94.1000 TC 55 5 292
1988310S08100 1989 104 SI WA BARISAONA 1988-11-09 15:00:00 TS -6.55289 93.8820 main 780 772 P_____P___P_P_ SH021989 -6.59999 93.8650 55 0 -6.40530 93.9635 30 50 -6.60630 93.8343 2 55 -6.59999 93.8650 TC 55 6 290
1988310S08100 1989 104 SI WA BARISAONA 1988-11-09 18:00:00 TS -6.45002 93.5875 50 bom main 797 789 O_____O___P_O_ jtwc_sh SH021989 -6.50000 93.6000 55 0 -6.30000 93.6000 30 50 3.50000 3.50000 -6.50007 93.5499 2 55 -6.50000 93.6000 TC 55 6 289
1988310S08100 1989 104 SI WA BARISAONA 1988-11-09 21:00:00 TS -6.34658 93.2926 main 807 807 P_____P___P_P_ SH021989 -6.40002 93.2925 55 0 -6.19248 93.3200 30 50 -6.39380 93.2656 2 55 -6.40002 93.2925 TC 55 6 290
1988310S08100 1989 104 SI WA BARISAONA 1988-11-10 00:00:00 TS -6.25000 93.0250 50 bom main 826 826 O_____O___O_O_ jtwc_sh SH021989 -6.30000 93.0000 55 0 -6.10000 93.1000 30 50 3.50000 3.50000 -6.30000 93.0000 2 55 -6.30000 93.0000 TC 55 5 292
1988310S08100 1989 104 SI WA BARISAONA 1988-11-10 03:00:00 TS -6.15996 92.8229 main 844 837 P_____P___P_P_ SH021989 -6.18497 92.7850 55 0 -6.04248 92.9350 30 50 -6.22741 92.7866 2 55 -6.18497 92.7850 TC 55 4 293
1988310S08100 1989 104 SI WA BARISAONA 1988-11-10 06:00:00 TS -6.09247 92.6481 50 bom main 855 855 O_____O___P_O_ jtwc_sh SH021989 -6.10000 92.6000 55 0 -6.00000 92.8000 30 50 3.50000 3.50000 -6.16988 92.5926 2 55 -6.10000 92.6000 TC 55 4 286
1988310S08100 1989 104 SI WA BARISAONA 1988-11-10 09:00:00 TS -6.05809 92.4668 main 864 864 P_____P___P_P_ SH021989 -6.08499 92.4000 55 0 -5.93498 92.6650 30 50 -6.12741 92.4022 2 55 -6.08499 92.4000 TC 55 4 277
1988310S08100 1989 104 SI WA BARISAONA 1988-11-10 12:00:00 TS -6.05000 92.2750 50 bom main 877 877 O_____O___O_O_ jtwc_sh SH021989 -6.10000 92.2000 55 0 -5.90000 92.5000 30 50 3.50000 3.50000 -6.10000 92.2000 2 55 -6.10000 92.2000 TC 55 4 271
1988310S08100 1989 104 SI WA BARISAONA 1988-11-10 15:00:00 TS -6.05397 92.0640 main 901 901 P_____P___P_P_ SH021989 -6.09997 92.0150 55 0 -5.94252 92.2575 30 50 -6.07342 91.9684 2 55 -6.09997 92.0150 TC 55 4 268
1988310S08100 1989 104 SI WA BARISAONA 1988-11-10 18:00:00 TS -6.06562 91.8306 50 bom main 929 929 O_____O___P_O_ jtwc_sh SH021989 -6.10000 91.8000 55 0 -6.00000 92.0000 30 50 3.50000 3.50000 -6.06247 91.7225 2 55 -6.10000 91.8000 TC 55 5 269
1988310S08100 1989 104 SI WA BARISAONA 1988-11-10 21:00:00 TS -6.06194 91.5757 main 948 948 P_____P___P_P_ SH021989 -6.09250 91.5150 55 0 -5.99247 91.8075 30 52 -6.07029 91.4653 2 55 -6.09250 91.5150 TC 55 5 269
1988310S08100 1989 104 SI WA BARISAONA 1988-11-11 00:00:00 TS -6.07500 91.3000 55 bom main 977 977 O_____O___O_O_ jtwc_sh SH021989 -6.10000 91.2000 55 0 -6.00000 91.6000 30 55 4.00000 4.00000 -6.10000 91.2000 2 55 -6.10000 91.2000 TC 55 6 263
1988310S08100 1989 104 SI WA BARISAONA 1988-11-11 03:00:00 TS -6.12707 91.0198 main 1006 1006 P_____P___P_P_ SH021989 -6.13500 90.8925 55 0 -6.08496 91.3375 30 55 -6.15331 90.9566 2 55 -6.13500 90.8925 TC 55 6 257
1988310S08100 1989 104 SI WA BARISAONA 1988-11-11 06:00:00 TS -6.20682 90.7256 55 bom main 1040 1040 O_____O___P_O_ jtwc_sh SH021989 -6.20000 90.6000 55 0 -6.20000 91.0000 30 55 4.00000 4.00000 -6.22730 90.7025 2 55 -6.20000 90.6000 TC 55 6 253
1988310S08100 1989 104 SI WA BARISAONA 1988-11-11 09:00:00 TS -6.30501 90.4293 main 1075 1075 P_____P___P_P_ SH021989 -6.29994 90.3650 55 0 -6.30753 90.5650 30 55 -6.31264 90.4222 2 55 -6.29994 90.3650 TC 55 7 253
1988310S08100 1989 104 SI WA BARISAONA 1988-11-11 12:00:00 TS -6.40000 90.1000 55 bom main 1109 1109 O_____O___O_O_ jtwc_sh SH021989 -6.40000 90.1000 55 0 -6.40000 90.1000 30 55 4.00000 4.00000 -6.40000 90.1000 2 55 -6.40000 90.1000 TC 55 7 258
1988310S08100 1989 104 SI MM BARISAONA 1988-11-11 15:00:00 TS -6.44944 89.7205 main 1147 1147 P_____P___P_P_ SH021989 -6.45000 89.7300 57 0 -6.43493 89.6999 30 55 -6.46284 89.7221 2 57 -6.45000 89.7300 TC 57 8 262
1988310S08100 1989 104 SI MM BARISAONA 1988-11-11 18:00:00 TS -6.50688 89.3006 56 bom main 1191 1191 O_____O___P_O_ jtwc_sh SH021989 -6.50000 89.3000 60 0 -6.50000 89.3000 30 56 -6.52752 89.3023 2 60 -6.50000 89.3000 TC 60 9 259
1988310S08100 1989 104 SI MM BARISAONA 1988-11-11 21:00:00 TS -6.61270 88.8628 main 1235 1235 P_____P___P_P_ SH021989 -6.57746 88.8650 62 0 -6.69246 88.8651 30 58 -6.60343 88.8564 2 62 -6.57746 88.8650 TC 62 9 255
1988310S08100 1989 104 SI MM BARISAONA 1988-11-12 00:00:00 TS -6.75000 88.4000 60 bom main 1289 1294 O_____O___O_O_ jtwc_sh SH021989 -6.70000 88.4000 65 1 -6.90000 88.4000 30 60 -6.70000 88.4000 3 65 -6.70000 88.4000 TC 65 10 253
1988310S08100 1989 104 SI MM BARISAONA 1988-11-12 03:00:00 TS -6.91088 87.9036 main 1348 1348 P_____P___P_P_ SH021989 -6.90001 87.8926 65 1 -7.01501 87.8925 30 60 -6.82847 87.9370 3 65 -6.90001 87.8926 TC 65 10 251
1988310S08100 1989 104 SI MM BARISAONA 1988-11-12 06:00:00 TS -7.06531 87.4518 60 bom main 1397 1397 O____OO___P_O_ jtwc_sh SH021989 -7.10000 87.4000 65 1 -7.00000 88.0000 3 44 984 3.50000 3.50000 -7.10000 87.4000 30 60 -6.97757 87.4701 3 65 -7.10000 87.4000 TC 65 9 250
1988310S08100 1989 104 SI MM BARISAONA 1988-11-12 09:00:00 TS -7.22590 87.0302 main 1452 1452 P____PP___P_P_ SH021989 -7.20744 86.9774 65 1 -7.54272 87.3704 3 44 984 -7.19244 86.9775 30 60 -7.13786 87.0182 3 65 -7.20744 86.9774 TC 65 9 247
1988310S08100 1989 104 SI MM BARISAONA 1988-11-12 12:00:00 TS -7.41053 86.6316 60 bom main 1501 1501 O____OO___O_O_ jtwc_sh SH021989 -7.30000 86.6000 65 1 -8.00000 86.8000 3 44 984 3.50000 3.50000 -7.30000 86.6000 30 60 -7.30000 86.6000 4 65 -7.30000 86.6000 TC 65 9 243
1988310S08100 1989 104 SI MM BARISAONA 1988-11-12 15:00:00 TS -7.61172 86.2592 main 1541 1541 P____PP___P_P_ SH021989 -7.44247 86.2350 65 1 -8.30992 86.3399 3 44 984 -7.44247 86.2350 30 60 -7.42128 86.2509 4 65 -7.44247 86.2350 TC 65 8 243
1988310S08100 1989 104 SI MM BARISAONA 1988-11-12 18:00:00 TS -7.76942 85.9269 60 bom main 1590 1590 O____OO___P_O_ jtwc_sh SH021989 -7.60000 85.9000 65 1 -8.50000 86.0000 3 44 984 3.50000 3.50000 -7.60000 85.9000 30 60 -7.54712 85.9345 4 65 -7.60000 85.9000 TC 65 7 245
1988310S08100 1989 104 SI MM BARISAONA 1988-11-12 21:00:00 TS -7.90083 85.6421 main 1625 1625 P____PP___P_P_ SH021989 -7.72745 85.5999 65 1 -8.62240 85.7849 3 44 984 -7.72745 85.5999 30 60 -7.69942 85.6258 4 65 -7.72745 85.5999 TC 65 6 243
1988310S08100 1989 104 SI MM BARISAONA 1988-11-13 00:00:00 TS -8.06000 85.3600 60 bom main 1655 1649 O____OO___O_O_ jtwc_sh SH021989 -7.90000 85.3000 65 1 -8.70000 85.6000 3 44 984 3.50000 3.50000 -7.90000 85.3000 30 60 -7.90000 85.3000 4 65 -7.90000 85.3000 TC 65 7 236
1988310S08100 1989 104 SI MM BARISAONA 1988-11-13 03:00:00 TS -8.30009 85.0374 main 1664 1664 P____PP___P_P_ SH021989 -8.16995 84.9724 65 1 -8.80002 85.3075 3 44 984 -8.16995 84.9724 30 60 -8.19059 84.9621 4 65 -8.16995 84.9724 TC 65 9 232
1988310S08100 1989 104 SI MM BARISAONA 1988-11-13 06:00:00 TS -8.58538 84.6795 60 bom main 1687 1684 O____OO___P_O_ jtwc_sh SH021989 -8.50000 84.6000 65 1 -8.90000 85.0000 3 44 984 3.50000 3.50000 -8.50000 84.6000 30 60 -8.52691 84.5973 4 65 -8.50000 84.6000 TC 65 9 231
1988310S08100 1989 104 SI MM BARISAONA 1988-11-13 09:00:00 TS -8.88036 84.3082 main 1708 1705 P____PP___P_P_ SH021989 -8.85744 84.1800 65 1 -8.95471 84.8172 3 44 984 -8.85744 84.1800 30 60 -8.87480 84.1839 4 65 -8.85744 84.1800 TC 65 10 234
1988310S08100 1989 104 SI MM BARISAONA 1988-11-13 12:00:00 TS -9.18000 83.8600 60 bom main 1731 1726 O____OO___O_O_ jtwc_sh SH021989 -9.20000 83.7000 65 1 -9.10000 84.5000 3 44 984 3.50000 3.50000 -9.20000 83.7000 30 60 -9.20000 83.7000 4 65 -9.20000 83.7000 TC 65 12 239
1988310S08100 1989 104 SI MM BARISAONA 1988-11-13 15:00:00 TS -9.47764 83.3017 main 1751 1749 P____PP___P_P_ SH021989 -9.47232 83.1949 65 1 -9.49276 83.8180 3 48 980 -9.47232 83.1949 30 60 -9.47851 83.1058 4 65 -9.47232 83.1949 TC 65 13 245
1988310S08100 1989 104 SI MM BARISAONA 1988-11-13 18:00:00 TS -9.74511 82.6491 60 bom main 1762 1762 O____OO___P_O_ jtwc_sh SH021989 -9.70000 82.6000 65 1 -9.90000 83.0000 3 52 976 4.00000 4.00000 -9.70000 82.6000 30 60 -9.72555 82.4453 4 65 -9.70000 82.6000 TC 65 14 250
1988310S08100 1989 104 SI MM BARISAONA 1988-11-13 21:00:00 TS -9.95645 81.9329 main 1787 1785 P____PP___P_P_ SH021989 -9.92261 81.8650 65 1 -10.0797 82.3071 3 57 971 -9.92261 81.8650 30 60 -9.93473 81.7621 4 65 -9.92261 81.8650 TC 65 15 255
1988310S08100 1989 104 SI MM BARISAONA 1988-11-14 00:00:00 TS -10.1200 81.2000 60 bom main 1794 1793 O____OO___O_O_ jtwc_sh SH021989 -10.1000 81.1000 65 1 -10.2000 81.6000 3 62 966 4.50000 4.50000 -10.1000 81.1000 30 60 -10.1000 81.1000 4 65 -10.1000 81.1000 TC 65 14 258
1988310S08100 1989 104 SI MM BARISAONA 1988-11-14 03:00:00 TS -10.2576 80.4994 main 1815 1815 P____PP___P_P_ SH021989 -10.2224 80.4049 67 1 -10.4152 80.7777 3 62 966 -10.2224 80.4049 30 62 -10.2056 80.5045 4 67 -10.2224 80.4049 TC 67 13 260
1988310S08100 1989 104 SI MM BARISAONA 1988-11-14 06:00:00 TS -10.3544 79.8679 62 966 reunion main 1828 1828 O____OO___P_O_ jtwc_sh SH021989 -10.3000 79.8000 70 1 -10.6000 80.0000 3 62 966 4.50000 4.50000 -10.3000 79.8000 40 65 -10.2721 79.9393 4 70 -10.3000 79.8000 TC 70 11 262
1988310S08100 1989 104 SI MM BARISAONA 1988-11-14 09:00:00 TS -10.4099 79.3463 main 1832 1832 P____PP___P_P_ SH021989 -10.3498 79.3049 72 1 -10.6722 79.4123 3 67 960 -10.3498 79.3049 40 67 -10.3275 79.4045 4 72 -10.3498 79.3049 TC 72 10 264
1988310S08100 1989 104 SI MM BARISAONA 1988-11-14 12:00:00 TS -10.4600 78.9000 72 954 reunion main 1847 1847 O____OO___O_O_ jtwc_sh SH021989 -10.4000 78.9000 75 1 -10.7000 78.9000 4 72 954 5.00000 5.00000 -10.4000 78.9000 40 70 -10.4000 78.9000 4 75 -10.4000 78.9000 TC 75 8 261
1988310S08100 1989 104 SI MM BARISAONA 1988-11-14 15:00:00 TS -10.5348 78.5045 main 1852 1852 P____PP___P_P_ SH021989 -10.4773 78.5649 77 1 -10.7346 78.3948 4 72 954 -10.4773 78.5649 40 72 -10.5076 78.4331 4 77 -10.4773 78.5649 TC 77 8 257
1988310S08100 1989 104 SI MM BARISAONA 1988-11-14 18:00:00 TS -10.6479 78.0784 72 954 reunion main 1869 1869 O____OO___P_O_ jtwc_sh SH021989 -10.6000 78.2000 80 1 -10.8000 77.8000 4 72 954 5.00000 5.00000 -10.6000 78.2000 40 75 -10.6393 77.9920 4 80 -10.6000 78.2000 TC 80 10 254
1988310S08100 1989 104 SI MM BARISAONA 1988-11-14 21:00:00 TS -10.8079 77.5060 main 1902 1902 P____PP___P_P_ SH021989 -10.7775 77.6875 82 1 -10.9056 76.9126 4 72 954 -10.7775 77.6875 40 77 -10.8013 77.5549 4 82 -10.7775 77.6875 TC 82 12 252
1988310S08100 1989 104 SI MM BARISAONA 1988-11-15 00:00:00 TS -11.0200 76.9000 72 954 reunion main 1937 1937 O____OO___O_O_ jtwc_sh SH021989 -11.0000 77.1000 85 2 -11.1000 76.1000 4 72 954 5.00000 5.00000 -11.0000 77.1000 40 80 -11.0000 77.1000 4 85 -11.0000 77.1000 TC 85 12 247
1988310S08100 1989 104 SI MM BARISAONA 1988-11-15 03:00:00 TS -11.2782 76.3498 main 1985 1985 P____PP___P_P_ SH021989 -11.2350 76.4850 87 2 -11.4346 75.7174 4 72 954 -11.2350 76.4850 40 80 -11.2514 76.5766 4 86 -11.2350 76.4850 TC 87 12 242
1988310S08100 1989 104 SI MM BARISAONA 1988-11-15 06:00:00 TS -11.5670 75.8471 72 954 reunion main 2031 2031 O____OO___P_O_ jtwc_sh SH021989 -11.5000 75.9000 90 2 -11.8000 75.5000 4 72 954 5.00000 5.00000 -11.5000 75.9000 40 80 -11.5352 76.0355 4 87 -11.5000 75.9000 TC 90 11 238
1988310S08100 1989 104 SI MM BARISAONA 1988-11-15 09:00:00 TS -11.8552 75.3967 main 2075 2051 P____PP___P_P_ SH021989 -11.7998 75.4274 90 2 -12.0500 75.1998 4 67 959 -11.7998 75.4274 40 80 -11.8264 75.5016 4 88 -11.7998 75.4274 TC 90 10 236
1988310S08100 1989 104 SI MM BARISAONA 1988-11-15 12:00:00 TS -12.1400 74.9800 62 965 reunion main 2051 1997 O____OO___O_O_ jtwc_sh SH021989 -12.1000 75.0000 90 2 -12.3000 74.9000 3 62 965 4.50000 4.50000 -12.1000 75.0000 40 80 -12.1000 75.0000 4 90 -12.1000 75.0000 TC 90 10 236
1988310S08100 1989 104 SI MM BARISAONA 1988-11-15 15:00:00 TS -12.4139 74.5522 main 1997 1942 P____PP___P_P_ SH021989 -12.3725 74.5350 90 2 -12.6350 74.5925 3 62 965 -12.3725 74.5350 40 80 -12.3170 74.5636 4 91 -12.3725 74.5350 TC 90 10 237
1988310S08100 1989 104 SI MM BARISAONA 1988-11-15 18:00:00 TS -12.6629 74.1524 62 965 reunion main 1942 1894 O____OO___P_O_ jtwc_sh SH021989 -12.6000 74.1000 90 2 -13.0000 74.3000 3 62 965 4.50000 4.50000 -12.6000 74.1000 40 80 -12.5144 74.1618 4 92 -12.6000 74.1000 TC 90 8 238
1988310S08100 1989 104 SI MM BARISAONA 1988-11-15 21:00:00 TS -12.8668 73.8232 main 1894 1860 P____PP___P_P_ SH021989 -12.7498 73.7572 92 2 -13.3799 74.0649 3 62 965 -12.7498 73.7572 40 85 -12.7046 73.7792 4 93 -12.7498 73.7572 TC 92 8 239
1988310S08100 1989 104 SI MM BARISAONA 1988-11-16 00:00:00 TS -13.0600 73.4800 62 965 reunion main 1854 1796 O____OO___O_O_ jtwc_sh SH021989 -12.9000 73.4000 95 2 -13.7000 73.8000 3 62 965 4.50000 4.50000 -12.9000 73.4000 40 90 -12.9000 73.4000 4 95 -12.9000 73.4000 TC 95 9 242
1988310S08100 1989 104 SI MM BARISAONA 1988-11-16 03:00:00 TS -13.2921 73.0181 main 1796 1747 P____PP___P_P_ SH021989 -13.1427 72.8927 97 3 -13.9024 73.4450 3 67 959 -13.1427 72.8927 40 90 -13.1301 72.9677 4 96 -13.1427 72.8927 TC 100 10 243
1988310S08100 1989 104 SI MM BARISAONA 1988-11-16 06:00:00 TS -13.5130 72.5481 72 954 reunion main 1738 1699 O____OO___P_O_ jtwc_sh SH021989 -13.4000 72.4000 100 3 -14.0000 73.0000 4 72 954 5.00000 5.00000 -13.4000 72.4000 40 90 -13.3652 72.5403 4 97 -13.4000 72.4000 TC 105 9 244
1988310S08100 1989 104 SI MM BARISAONA 1988-11-16 09:00:00 TS -13.6920 72.1560 main 1699 1655 P____PP___P_P_ SH021989 -13.6149 72.0549 100 3 -14.0225 72.4724 4 72 954 -13.6149 72.0549 40 90 -13.5927 72.1427 4 98 -13.6149 72.0549 TC 102 8 245
1988310S08100 1989 104 SI MM BARISAONA 1988-11-16 12:00:00 TS -13.8400 71.8200 72 954 reunion main 1655 1616 O____OO___O_O_ jtwc_sh SH021989 -13.8000 71.8000 100 3 -14.0000 71.9000 4 72 954 5.00000 5.00000 -13.8000 71.8000 40 90 -13.8000 71.8000 4 100 -13.8000 71.8000 TC 100 7 246
1988310S08100 1989 104 SI MM BARISAONA 1988-11-16 15:00:00 TS -13.9649 71.5281 main 1616 1592 P____PP___P_P_ SH021989 -13.9574 71.5849 95 2 -13.9850 71.3274 4 72 954 -13.9574 71.5849 40 87 -13.9670 71.5582 4 97 -13.9574 71.5849 TC 95 6 245
1988310S08100 1989 104 SI MM BARISAONA 1988-11-16 18:00:00 TS -14.0829 71.2739 72 954 reunion main 1592 1567 O____OO___P_O_ jtwc_sh SH021989 -14.1000 71.4000 90 2 -14.0000 70.8000 4 72 954 5.00000 5.00000 -14.1000 71.4000 40 85 -14.1144 71.3693 4 95 -14.1000 71.4000 TC 90 5 242
1988310S08100 1989 104 SI MM BARISAONA 1988-11-16 21:00:00 TS -14.2118 71.0421 main 1558 1528 P____PP___P_P_ SH021989 -14.2499 71.2149 90 2 -14.0548 70.3699 4 67 960 -14.2499 71.2149 40 85 -14.2546 71.1958 4 92 -14.2499 71.2149 TC 90 5 239
1988310S08100 1989 104 SI MM BARISAONA 1988-11-17 00:00:00 TS -14.3600 70.8000 62 966 reunion main 1528 1495 O____OO___O_O_ jtwc_sh SH021989 -14.4000 71.0000 90 2 -14.2000 70.0000 3 62 966 4.50000 4.50000 -14.4000 71.0000 40 85 -14.4000 71.0000 4 90 -14.4000 71.0000 TC 90 6 239
1988310S08100 1989 104 SI MM BARISAONA 1988-11-17 03:00:00 TS -14.5354 70.4963 main 1495 1456 P____PP___P_P_ SH021989 -14.5425 70.7150 90 2 -14.4775 69.6201 3 62 966 -14.5425 70.7150 40 85 -14.5720 70.7167 4 91 -14.5425 70.7150 TC 90 7 238
1988310S08100 1989 104 SI MM BARISAONA 1988-11-17 06:00:00 TS -14.7300 70.1815 62 966 reunion main 1456 1417 O____OO___P_O_ jtwc_sh SH021989 -14.7000 70.4000 90 2 -14.8000 69.3000 3 62 966 4.50000 4.50000 -14.7000 70.4000 40 85 -14.7502 70.4077 4 92 -14.7000 70.4000 TC 90 7 236
1988310S08100 1989 104 SI MM BARISAONA 1988-11-17 09:00:00 TS -14.9341 69.8869 main 1417 1378 P____PP___P_P_ SH021989 -14.9000 70.0850 92 2 -15.0424 69.0848 3 62 966 -14.9000 70.0850 40 87 -14.9283 70.0948 4 93 -14.9000 70.0850 TC 92 7 233
1988310S08100 1989 104 SI MM BARISAONA 1988-11-17 12:00:00 TS -15.1400 69.6200 62 966 reunion main 1378 1349 O____OO___O_O_ jtwc_sh SH021989 -15.1000 69.8000 95 2 -15.3000 68.9000 3 62 966 4.50000 4.50000 -15.1000 69.8000 40 90 -15.1000 69.8000 4 95 -15.1000 69.8000 TC 95 6 230
1988310S08100 1989 104 SI MM BARISAONA 1988-11-17 15:00:00 TS -15.3329 69.3937 main 1349 1319 P____PP___P_P_ SH021989 -15.2574 69.5924 97 3 -15.6350 68.6500 3 62 966 -15.2574 69.5924 40 90 -15.2571 69.5411 4 93 -15.2574 69.5924 TC 97 6 228
1988310S08100 1989 104 SI MM BARISAONA 1988-11-17 18:00:00 TS -15.5215 69.1810 62 966 reunion main 1319 1291 O____OO___P_O_ jtwc_sh SH021989 -15.4000 69.4000 100 3 -16.0000 68.4000 3 62 966 4.50000 4.50000 -15.4000 69.4000 40 90 -15.4074 69.3048 4 92 -15.4000 69.4000 TC 100 6 229
1988310S08100 1989 104 SI MM BARISAONA 1988-11-17 21:00:00 TS -15.7183 68.9392 main 1281 1252 P____PP___P_P_ SH021989 -15.5575 69.1425 95 2 -16.3650 68.1775 3 62 966 -15.5575 69.1425 40 87 -15.5540 69.0911 4 91 -15.5575 69.1425 TC 95 6 230
1988310S08100 1989 104 SI MM BARISAONA 1988-11-18 00:00:00 TS -15.9000 68.7200 62 966 reunion main 1252 1238 O____OO___O_O_ jtwc_sh SH021989 -15.7000 68.9000 90 2 -16.7000 68.0000 3 62 966 4.50000 4.50000 -15.7000 68.9000 40 85 -15.7000 68.9000 4 90 -15.7000 68.9000 TC 90 5 228
1988310S08100 1989 104 SI MM BARISAONA 1988-11-18 03:00:00 TS -16.0398 68.5651 main 1238 1209 P____PP___P_P_ SH021989 -15.7925 68.7349 85 2 -16.9799 67.8924 3 62 966 -15.7925 68.7349 40 82 -15.8418 68.7283 4 88 -15.7925 68.7349 TC 85 4 225
1988310S08100 1989 104 SI MM BARISAONA 1988-11-18 06:00:00 TS -16.1770 68.4354 62 966 reunion main 1209 1195 O____OO___P_O_ jtwc_sh SH021989 -15.9000 68.6000 80 1 -17.2000 67.8000 3 62 966 4.50000 4.50000 -15.9000 68.6000 40 80 -15.9848 68.5772 4 87 -15.9000 68.6000 TC 80 4 221
1988310S08100 1989 104 SI MM BARISAONA 1988-11-18 09:00:00 TS -16.3496 68.2845 main 1195 1166 P____PP___P_P_ SH021989 -16.0850 68.4425 82 1 -17.3575 67.6574 3 62 966 -16.0850 68.4425 40 80 -16.1355 68.4376 4 86 -16.0850 68.4425 TC 82 5 218
1988310S08100 1989 104 SI MM BARISAONA 1988-11-18 12:00:00 TS -16.5400 68.1400 62 966 reunion main 1166 1148 O____OO___O_O_ jtwc_sh SH021989 -16.3000 68.3000 85 2 -17.5000 67.5000 3 62 966 4.50000 4.50000 -16.3000 68.3000 40 80 -16.3000 68.3000 4 85 -16.3000 68.3000 TC 85 5 213
1988310S08100 1989 104 SI MM BARISAONA 1988-11-18 15:00:00 TS -16.7386 68.0255 main 1148 1130 P____PP___P_P_ SH021989 -16.5000 68.2074 87 2 -17.7075 67.3351 3 57 971 -16.5000 68.2074 40 80 -16.4855 68.1701 4 83 -16.5000 68.2074 TC 87 5 210
1988310S08100 1989 104 SI MM BARISAONA 1988-11-18 18:00:00 TS -16.9370 67.9074 52 976 reunion main 1130 1112 O____OO___P_O_ jtwc_sh SH021989 -16.7000 68.1000 90 2 -17.9000 67.2000 3 52 976 4.00000 4.00000 -16.7000 68.1000 40 80 -16.6847 68.0372 4 82 -16.7000 68.1000 TC 90 5 215
1988310S08100 1989 104 SI MM BARISAONA 1988-11-18 21:00:00 TS -17.1093 67.7576 main 1112 1084 P____PP___P_P_ SH021989 -16.8850 67.9224 85 2 -18.0000 67.1349 3 48 980 -16.8850 67.9224 40 77 -16.8917 67.8857 4 81 -16.8850 67.9224 TC 85 5 221
1988310S08100 1989 104 SI MM BARISAONA 1988-11-19 00:00:00 TS -17.3000 67.5800 44 984 reunion main 1084 1053 O____OO___O_O_ jtwc_sh SH021989 -17.1000 67.7000 80 1 -18.1000 67.1000 3 44 984 3.50000 3.50000 -17.1000 67.7000 40 75 -17.1000 67.7000 4 80 -17.1000 67.7000 TC 80 6 218
1988310S08100 1989 104 SI MM BARISAONA 1988-11-19 03:00:00 TS -17.5685 67.3804 main 1053 1026 P____PP___P_P_ SH021989 -17.4150 67.4651 72 1 -18.2850 67.0575 3 44 984 -17.4150 67.4651 40 65 -17.3124 67.4490 4 72 -17.4150 67.4651 TC 72 7 218
1988310S08100 1989 104 SI MM BARISAONA 1988-11-19 06:00:00 TS -17.8246 67.1531 44 984 reunion main 1026 989 O____OO___P_O_ jtwc_sh SH021989 -17.7000 67.2000 65 1 -18.5000 67.0000 3 44 984 3.50000 3.50000 -17.7000 67.2000 30 55 -17.5228 67.1653 4 65 -17.7000 67.2000 TC 65 6 229
1988310S08100 1989 104 SI MM BARISAONA 1988-11-19 09:00:00 TS -17.9779 66.8932 main 989 966 P____PP___P_P_ SH021989 -17.8225 66.8923 57 0 -18.7000 66.9150 3 44 984 -17.8225 66.8923 30 50 -17.7218 66.8740 4 57 -17.8225 66.8923 TC 57 6 241
1988310S08100 1989 104 SI MM BARISAONA 1988-11-19 12:00:00 TS -18.1000 66.6400 44 984 reunion main 956 929 O____OO___O_O_ jtwc_sh SH021989 -17.9000 66.6000 50 0 -18.9000 66.8000 3 44 984 3.50000 3.50000 -17.9000 66.6000 30 45 -17.9000 66.6000 2 50 -17.9000 66.6000 TC 50 5 237
1988310S08100 1989 104 SI MM BARISAONA 1988-11-19 15:00:00 TS -18.2625 66.4334 main 929 916 P____PP___P_P_ SH021989 -18.0499 66.3850 47 0 -19.1000 66.6500 3 40 987 -18.0499 66.3850 30 42 -18.0627 66.3621 2 47 -18.0499 66.3850 TC 47 5 229
1988310S08100 1989 104 SI MM BARISAONA 1988-11-19 18:00:00 TS -18.4205 66.2495 36 991 reunion main 906 893 O____OO___P_O_ jtwc_sh SH021989 -18.2000 66.2000 45 0 -19.3000 66.5000 3 36 991 3.00000 3.00000 -18.2000 66.2000 30 40 -18.2024 66.1474 2 45 -18.2000 66.2000 TC 45 5 231
1988310S08100 1989 104 SI MM BARISAONA 1988-11-19 21:00:00 TS -18.5537 66.0598 main 890 867 P____PP___P_P_ SH021989 -18.3150 65.9850 42 0 -19.5075 66.3850 3 32 994 -18.3150 65.9850 30 37 -18.3159 65.9590 2 42 -18.3150 65.9850 TC 42 4 234
1988310S08100 1989 104 SI MM BARISAONA 1988-11-20 00:00:00 TS -18.6600 65.9000 28 997 reunion main 867 857 O____OO___O_O_ jtwc_sh SH021989 -18.4000 65.8000 40 0 -19.7000 66.3000 3 28 997 2.50000 2.50000 -18.4000 65.8000 30 35 -18.4000 65.8000 2 40 -18.4000 65.8000 TC 40 3 234
1988310S08100 1989 104 SI MM BARISAONA 1988-11-20 03:00:00 TS -18.7457 65.7833 main 857 842 P____PP___P_P_ SH021989 -18.4650 65.6850 37 0 -19.8799 66.1900 3 28 997 -18.4650 65.6850 30 32 -18.4535 65.6716 2 37 -18.4650 65.6850 TC 37 3 215
1988310S08100 1989 104 SI MM BARISAONA 1988-11-20 06:00:00 TS -18.8717 65.7439 28 997 reunion main 842 842 O____OO___P_O_ jtwc_sh SH021989 -18.5000 65.6000 35 0 -20.0000 66.2000 3 28 997 2.50000 2.50000 -18.5000 65.6000 20 30 -18.4825 65.5675 2 35 -18.5000 65.6000 TC 35 3 173
1988310S08100 1989 104 SI MM BARISAONA 1988-11-20 09:00:00 TS -19.0231 65.8249 main 850 850 P____PP___P_P_ SH021989 -18.5075 65.5050 32 -1 -20.0602 66.4774 3 28 997 -18.5075 65.5050 20 27 -18.4953 65.4797 2 32 -18.5075 65.5050 TC 32 5 138
1988310S08100 1989 104 SI MM BARISAONA 1988-11-20 12:00:00 TS -19.2500 66.1000 28 997 reunion main 877 875 O____OO___O_O_ jtwc_sh SH021989 -18.5000 65.4000 30 -1 -20.0000 66.8000 3 28 997 2.50000 2.50000 -18.5000 65.4000 20 25 -18.5000 65.4000 1 30 -18.5000 65.4000 TC 30 13 126
1988310S08100 1989 104 SI MM BARISAONA 1988-11-20 15:00:00 TS -19.7874 66.9526 main 962 962 _____P________ SH021989 -1 -19.7874 66.9526 3 28 997 20 1 TC 9 106
1988310S08100 1989 104 SI MM BARISAONA 1988-11-20 18:00:00 TS -19.5000 67.0000 28 997 reunion main 965 965 _____O________ -1 -19.5000 67.0000 3 28 997 2.50000 2.50000 1 6 4
1988310S08100 1989 104 SI MM BARISAONA 1988-11-20 21:00:00 TS -19.2350 66.9874 main 970 961 _____P________ -1 -19.2350 66.9874 3 28 997 1 5 349
1988310S08100 1989 104 SI MM BARISAONA 1988-11-21 00:00:00 TS -19.0000 66.9000 28 997 reunion main 963 955 _____O________ -1 -19.0000 66.9000 3 28 997 2.50000 2.50000 5 334
1988310S08100 1989 104 SI MM BARISAONA 1988-11-21 03:00:00 TS -18.8125 66.7649 main 957 939 _____P________ -1 -18.8125 66.7649 3 28 997 4 317
1988310S08100 1989 104 SI MM BARISAONA 1988-11-21 06:00:00 TS -18.7000 66.6000 28 997 reunion main 939 929 _____O________ -1 -18.7000 66.6000 3 28 997 2.50000 2.50000 3 294
1988310S08100 1989 104 SI MM BARISAONA 1988-11-21 09:00:00 TS -18.6775 66.4426 main 918 908 _____P________ -1 -18.6775 66.4426 3 26 998 3 270
1988310S08100 1989 104 SI MM BARISAONA 1988-11-21 12:00:00 TS -18.7000 66.3000 24 1000 reunion main 908 898 _____O________ -1 -18.7000 66.3000 2 24 1000 2.00000 2.00000 2 265
1988310S08100 1989 104 SI MM BARISAONA 1988-11-21 15:00:00 TS -18.7000 66.1850 main 898 888 _____P________ -1 -18.7000 66.1850 2 24 1000 2 270
1988310S08100 1989 104 SI MM BARISAONA 1988-11-21 18:00:00 TS -18.7000 66.1000 24 1000 reunion main 888 888 _____O________ -1 -18.7000 66.1000 2 24 1000 2.00000 2.00000 1 273
1988310S08100 1989 104 SI MM BARISAONA 1988-11-21 21:00:00 TS -18.6925 66.0500 main 888 877 _____P________ -1 -18.6925 66.0500 2 22 1 270
1988310S08100 1989 104 SI MM BARISAONA 1988-11-22 00:00:00 TS -18.7000 66.0000 20 reunion main 877 875 _____O________ -1 -18.7000 66.0000 2 20 1.50000 1.50000 1 222
1988310S08100 1989 104 SI MM BARISAONA 1988-11-22 03:00:00 TS -18.8024 65.9453 main 865 854 _____P________ -1 -18.8024 65.9453 2 20 2 242
1988310S08100 1989 104 SI MM BARISAONA 1988-11-22 06:00:00 TS -18.8000 65.8000 20 reunion main 854 829 _____O________ -1 -18.8000 65.8000 2 20 1.50000 1.50000 6 301
1988310S08100 1989 104 SI MM BARISAONA 1988-11-22 09:00:00 TS -18.5103 65.4419 main 822 801 _____P________ -1 -18.5103 65.4419 2 28 10 317
1988310S08100 1989 104 SI MM BARISAONA 1988-11-22 12:00:00 TS -18.1000 65.1000 36 reunion main 805 798 _____O________ -1 -18.1000 65.1000 6 36 9.90000 9 330
1988310S08100 1989 104 SI MM BARISAONA 1988-11-22 15:00:00 TS -17.7799 64.9902 main 806 806 _____P________ -1 -17.7799 64.9902 6 36 7 352
1988310S08100 1989 104 SI MM BARISAONA 1988-11-22 18:00:00 TS -17.4000 65.0000 36 reunion main 824 824 _____O________ -1 -17.4000 65.0000 6 36 9.90000 9 2
1988310S08100 1989 104 SI MM BARISAONA 1988-11-22 21:00:00 TS -16.8500 65.0351 main 848 848 _____P________ -1 -16.8500 65.0351 6 36 11 5
1988310S08100 1989 104 SI MM BARISAONA 1988-11-23 00:00:00 TS -16.3000 65.1000 36 reunion main 889 889 _____O________ -1 -16.3000 65.1000 6 36 9.90000 10 7
1988310S08100 1989 104 SI MM BARISAONA 1988-11-23 03:00:00 TS -15.9000 65.1549 main 921 921 _____P________ -1 -15.9000 65.1549 6 36 7 8
1988310S08100 1989 104 SI MM BARISAONA 1988-11-23 06:00:00 TS -15.6000 65.2000 36 reunion main 939 _____O________ -1 -15.6000 65.2000 6 36 9.90000 6 5

IBTrACS Databaseについて

本データベースは、米国NOAAが公開する1842年以降の世界の熱帯低気圧のベストトラックデータアーカイブInternational Best Track Archive for Climate Stewardship (IBTrACS)を、ウェブで閲覧しやすい形式に変換したものです。

最終更新日:2021-12-03